Flight Track Log - Related Links

Times and Time Zones

All times are in EDT time to prevent confusion due to time zone crossing. See the SAS403 flight status page for this flight to view local times or setup timezone preferences in your user account.

Time Position Orientation Groundspeed Altitude Reporting Facility
EDT Latitude Longitude Course Direction KTS MPH feet Rate Location/Type
Sat 04:11:07 AM 59.6660 17.9930 74° East 146 168 1,000  Level FlightAware ADS-B
Sat 04:11:32 AM 59.6700 18.0290 78° East 162 186 1,800 1,800 Climbing FlightAware ADS-B
Sat 04:11:47 AM 59.6750 18.0470 61° Northeast 175 201 2,200 1,600 Climbing FlightAware ADS-B
Sat 04:12:02 AM 59.6870 18.0610 30° Northeast 203 234 2,600 2,250 Climbing FlightAware ADS-B
Sat 04:12:27 AM 59.7110 18.0670 North 220 253 3,700 2,291 Climbing FlightAware ADS-B
Sat 04:12:57 AM 59.7440 18.0530 348° North 265 305 4,700 2,000 Climbing FlightAware ADS-B
Sat 04:13:12 AM 59.7610 18.0280 323° Northwest 294 338 5,200 1,600 Climbing FlightAware ADS-B
Sat 04:13:27 AM 59.7710 17.9940 300° West 319 367 5,500 1,200 Climbing FlightAware ADS-B
Sat 04:13:37 AM 59.7740 17.9630 281° West 333 383 5,700 2,100 Climbing FlightAware ADS-B
Sat 04:14:07 AM 59.7600 17.8740 253° West 350 403 6,900 2,836 Climbing FlightAware ADS-B
Sat 04:14:32 AM 59.7350 17.8050 234° Southwest 356 410 8,300 3,300 Climbing FlightAware ADS-B
Sat 04:14:47 AM 59.7190 17.7720 226° Southwest 356 410 9,100 3,200 Climbing FlightAware ADS-B
Sat 04:15:32 AM 59.6590 17.6800 218° Southwest 360 414 11,500 2,965 Climbing FlightAware ADS-B
Sat 04:16:12 AM 59.6040 17.6060 214° Southwest 369 425 13,300 2,541 Climbing FlightAware ADS-B
Sat 04:16:57 AM 59.5360 17.5340 208° Southwest 380 437 15,100 2,329 Climbing FlightAware ADS-B
Sat 04:17:37 AM 59.4740 17.4640 210° Southwest 390 449 16,600 2,250 Climbing FlightAware ADS-B
Sat 04:18:17 AM 59.4100 17.3930 209° Southwest 400 460 18,100 2,188 Climbing FlightAware ADS-B
Sat 04:19:02 AM 59.3360 17.3100 210° Southwest 409 471 19,700 2,047 Climbing FlightAware ADS-B
Sat 04:19:42 AM 59.2700 17.2360 210° Southwest 416 479 21,000 1,765 Climbing FlightAware ADS-B
Sat 04:20:27 AM 59.1960 17.1510 210° Southwest 426 490 22,200 1,553 Climbing FlightAware ADS-B
Sat 04:21:07 AM 59.1310 17.0660 214° Southwest 437 503 23,200 1,425 Climbing FlightAware ADS-B
Sat 04:21:47 AM 59.0680 16.9580 221° Southwest 448 516 24,100 1,412 Climbing FlightAware ADS-B
Sat 04:22:32 AM 58.9940 16.8350 221° Southwest 457 526 25,200 1,482 Climbing FlightAware ADS-B
Sat 04:23:12 AM 58.9300 16.7280 221° Southwest 460 529 26,200 1,350 Climbing FlightAware ADS-B
Sat 04:23:52 AM 58.8670 16.6230 221° Southwest 466 536 27,000 1,129 Climbing FlightAware ADS-B
Sat 04:24:37 AM 58.7940 16.5030 220° Southwest 474 545 27,800 1,129 Climbing FlightAware ADS-B
Sat 04:25:17 AM 58.7250 16.3900 220° Southwest 482 555 28,600 1,624 Climbing FlightAware ADS-B
Sat 04:26:02 AM 58.6480 16.2630 221° Southwest 471 542 30,100 1,482 Climbing FlightAware ADS-B
Sat 04:26:42 AM 58.5830 16.1580 220° Southwest 476 548 30,700 1,350 Climbing FlightAware ADS-B
Sat 04:27:22 AM 58.5170 16.0520 220° Southwest 466 536 31,900 1,412 Climbing FlightAware ADS-B
Sat 04:28:07 AM 58.4440 15.9350 220° Southwest 469 540 32,700 1,341 Climbing FlightAware ADS-B
Sat 04:28:47 AM 58.3780 15.8280 220° Southwest 463 533 33,800 975 Climbing FlightAware ADS-B
Sat 04:29:27 AM 58.3120 15.7240 220° Southwest 459 528 34,000 141 Climbing FlightAware ADS-B
Sat 04:30:12 AM 58.2400 15.6090 220° Southwest 462 532 34,000  Level FlightAware ADS-B
Sat 04:30:52 AM 58.1760 15.5090 220° Southwest 463 533 34,000  Level FlightAware ADS-B
Sat 04:31:37 AM 58.0970 15.3850 220° Southwest 465 535 34,000  Level FlightAware ADS-B
Sat 04:32:17 AM 58.0320 15.2830 220° Southwest 466 536 34,000  Level FlightAware ADS-B
Sat 04:33:02 AM 57.9550 15.1650 219° Southwest 468 539 34,000  Level FlightAware ADS-B
Sat 04:33:42 AM 57.8890 15.0620 220° Southwest 469 540 34,000  Level FlightAware ADS-B
Sat 04:34:22 AM 57.8240 14.9630 219° Southwest 469 540 34,000  Level FlightAware ADS-B
Sat 04:35:07 AM 57.7490 14.8480 219° Southwest 470 541 34,000  Level FlightAware ADS-B
Sat 04:35:47 AM 57.6790 14.7430 219° Southwest 469 540 34,000  Level FlightAware ADS-B
Sat 04:36:27 AM 57.6140 14.6440 219° Southwest 470 541 34,000  Level FlightAware ADS-B
Sat 04:37:12 AM 57.5350 14.5250 219° Southwest 471 542 34,000  Level FlightAware ADS-B
Sat 04:37:52 AM 57.4670 14.4240 219° Southwest 471 542 34,000  Level FlightAware ADS-B
Sat 04:38:37 AM 57.3920 14.3120 219° Southwest 471 542 34,000  Level FlightAware ADS-B
Sat 04:39:17 AM 57.3220 14.2090 218° Southwest 469 540 34,000  Level FlightAware ADS-B
Sat 04:39:57 AM 57.2550 14.1100 219° Southwest 468 539 34,000 -212 Level FlightAware ADS-B
Sat 04:40:42 AM 57.1790 13.9980 219° Southwest 466 536 33,700 -635 Descending FlightAware ADS-B
Sat 04:41:22 AM 57.1100 13.8980 218° Southwest 464 534 33,100 -1,765 Descending FlightAware ADS-B
Sat 04:42:07 AM 57.0360 13.7800 221° Southwest 472 543 31,200 -3,035 Descending FlightAware ADS-B
Sat 04:42:47 AM 56.9720 13.6750 222° Southwest 480 552 28,800 -3,035 Descending FlightAware ADS-B
Sat 04:43:32 AM 56.8960 13.5510 222° Southwest 467 537 26,900 -2,329 Descending FlightAware ADS-B
Sat 04:44:12 AM 56.8360 13.4520 222° Southwest 451 519 25,500 -2,025 Descending FlightAware ADS-B
Sat 04:44:52 AM 56.7700 13.3590 218° Southwest 455 524 24,200 -2,188 Descending FlightAware ADS-B
Sat 04:45:37 AM 56.6930 13.2570 216° Southwest 446 513 22,400 -2,471 Descending FlightAware ADS-B
Sat 04:46:17 AM 56.6280 13.1700 216° Southwest 430 495 20,700 -2,475 Descending FlightAware ADS-B
Sat 04:46:57 AM 56.5620 13.0840 216° Southwest 418 481 19,100 -2,400 Descending FlightAware ADS-B
Sat 04:47:42 AM 56.4950 12.9960 216° Southwest 405 466 17,300 -2,400 Descending FlightAware ADS-B
Sat 04:48:27 AM 56.4260 12.9060 216° Southwest 393 452 15,500 -2,329 Descending FlightAware ADS-B
Sat 04:49:07 AM 56.3680 12.8310 216° Southwest 384 442 14,000 -2,188 Descending FlightAware ADS-B
Sat 04:49:52 AM 56.3040 12.7490 215° Southwest 368 423 12,400 -1,624 Descending FlightAware ADS-B
Sat 04:50:32 AM 56.2440 12.7050 202° Southwest 362 417 11,700 -988 Descending FlightAware ADS-B
Sat 04:51:17 AM 56.1710 12.6590 199° South 361 415 11,000 -988 Descending FlightAware ADS-B
Sat 04:51:57 AM 56.1080 12.6190 199° South 357 411 10,300 -1,015 Descending FlightAware ADS-B
Sat 04:52:22 AM 56.0710 12.5960 199° South 352 405 9,900 -900 Descending FlightAware ADS-B
Sat 04:52:37 AM 56.0460 12.5800 200° South 350 403 9,700 -933 Descending FlightAware ADS-B
Sat 04:53:07 AM 56.0010 12.5520 199° South 347 399 9,200 -1,200 Descending FlightAware ADS-B
Sat 04:53:17 AM 55.9850 12.5420 199° South 344 396 8,900 -2,400 Descending FlightAware ADS-B
Sat 04:53:47 AM 55.9400 12.5140 199° South 344 396 7,600 -2,200 Descending FlightAware ADS-B
Sat 04:54:17 AM 55.8980 12.4880 199° South 333 383 6,700 -1,855 Descending FlightAware ADS-B
Sat 04:54:42 AM 55.8610 12.4670 198° South 326 375 5,900 -1,950 Descending FlightAware ADS-B
Sat 04:54:57 AM 55.8370 12.4590 191° South 319 367 5,400 -1,650 Descending FlightAware ADS-B
Sat 04:55:22 AM 55.8020 12.4490 189° South 305 351 4,800 -1,200 Descending FlightAware ADS-B
Sat 04:55:52 AM 55.7620 12.4370 190° South 286 329 4,300 -900 Descending FlightAware ADS-B
Sat 04:56:22 AM 55.7260 12.4280 188° South 269 310 3,900 -655 Descending FlightAware ADS-B
Sat 04:56:47 AM 55.6950 12.4210 187° South 251 289 3,700 -545 Descending FlightAware ADS-B
Sat 04:57:17 AM 55.6610 12.4140 187° South 232 267 3,400 -600 Descending FlightAware ADS-B
Sat 04:57:47 AM 55.6310 12.4150 179° South 214 246 3,100 -436 Descending FlightAware ADS-B
Sat 04:58:12 AM 55.6090 12.4170 177° South 200 230 3,000 -480 Descending FlightAware ADS-B
Sat 04:58:37 AM 55.5870 12.4210 174° South 184 212 2,700 -600 Descending FlightAware ADS-B
Sat 04:58:52 AM 55.5750 12.4280 162° South 165 190 2,600 -400 Descending FlightAware ADS-B
Sat 04:59:07 AM 55.5660 12.4400 143° Southeast 153 176 2,500 -600 Descending FlightAware ADS-B
Sat 04:59:22 AM 55.5600 12.4550 125° Southeast 148 170 2,300 -800 Descending FlightAware ADS-B
Sat 04:59:37 AM 55.5570 12.4730 106° East 142 163 2,100 -655 Descending FlightAware ADS-B
Sat 05:00:17 AM 55.5580 12.5160 88° East 135 155 1,700 -771 Descending FlightAware ADS-B
Sat 05:00:47 AM 55.5620 12.5480 78° East 137 158 1,200 -1,000 Descending FlightAware ADS-B
Sat 05:01:17 AM 55.5730 12.5750 54° Northeast 135 155 700 -873 Descending FlightAware ADS-B
Sat 05:01:42 AM 55.5860 12.5930 38° Northeast 134 154 400 -369 Descending FlightAware ADS-B
Sat 05:02:22 AM 55.6020 12.6200 44° Northeast 135 155 300 -150 Descending FlightAware ADS-B
Sat 05:04:00 AM 55.6179 12.6560 52° Northeast  Level Estimated
Sat 05:05:00 AM 55.6179 12.6560 159° South  Level Estimated
Sat 05:06:00 AM 55.6179 12.6560 159° South  Level Estimated
Sat 05:07:00 AM 55.6179 12.6560 159° South  Level Estimated
Sat 05:08:00 AM 55.6179 12.6560 159° South  Level Estimated

Login

Don't have an account? Register now (free) for customized features, flight alerts, and more!